Terminal Aerodrome Forecast
Issued by NWS

Home | Current Version | Previous Version | Text Only | Print | Product List | Glossary On
Versions: 1 2 3 4 5 6 7 8 9 10 11 12
192
FTUS45 KABQ 172320
TAFFMN
TAF
KFMN 172320Z 1800/1824 28008KT P6SM SCT250
     FM180300 06006KT P6SM SCT250
     FM181100 09007KT P6SM BKN250
     FM182100 27007KT P6SM BKN250=

USA.gov is the U.S. government's official web portal to all federal, state and local government web resources and services.